Time;durP1;ratioP1;P1;durP2;ratioP2;P2;SDS_P1;SDS_P2;PMS_P1;PMS_P2;Temp;Humidity;BMP_temperature;BMP_pressure;BME280_temperature;BME280_humidity;BME280_pressure;Samples;Min_cycle;Max_cycle;Signal;HPM_P1;HPM_P2
2022/05/29 00:01:03;;;;;;;0.60;0.60;;;12.50;59.80;;;;;;5035603;28;20493;-82
2022/05/29 00:03:28;;;;;;;2.00;0.50;;;12.40;59.70;;;;;;5020572;28;20036;-82
2022/05/29 00:05:54;;;;;;;1.05;0.60;;;12.40;59.80;;;;;;5018520;28;20045;-82
2022/05/29 00:08:36;;;;;;;1.83;0.70;;;12.30;59.90;;;;;;5041221;28;20055;-82
2022/05/29 00:11:06;;;;;;;1.55;0.73;;;12.20;60.40;;;;;;5050201;28;20027;-82
2022/05/29 00:13:32;;;;;;;1.27;0.70;;;12.20;60.30;;;;;;5026163;28;20026;-82
2022/05/29 00:15:58;;;;;;;0.60;0.50;;;12.10;60.00;;;;;;5036899;28;20595;-82
2022/05/29 00:18:25;;;;;;;1.10;0.60;;;12.10;60.30;;;;;;5033803;28;20048;-82
2022/05/29 00:20:54;;;;;;;1.30;0.68;;;12.00;60.30;;;;;;5021001;28;20030;-82
2022/05/29 00:23:21;;;;;;;1.63;0.75;;;12.00;60.60;;;;;;5010865;28;20124;-82
2022/05/29 00:25:49;;;;;;;1.40;0.50;;;11.90;60.40;;;;;;5027783;28;20037;-80
2022/05/29 00:28:15;;;;;;;2.30;0.90;;;11.90;60.70;;;;;;5027275;28;20047;-79
2022/05/29 00:30:41;;;;;;;2.10;0.73;;;11.80;60.60;;;;;;5026554;28;20029;-80
2022/05/29 00:33:07;;;;;;;1.58;0.73;;;11.80;60.60;;;;;;5029830;28;20047;-80
2022/05/29 00:35:33;;;;;;;4.18;1.15;;;11.80;60.90;;;;;;5021472;28;20033;-80
2022/05/29 00:38:00;;;;;;;1.93;0.60;;;11.70;61.70;;;;;;5013588;28;20087;-80
2022/05/29 00:41:02;;;;;;;1.65;0.73;;;11.60;60.90;;;;;;5030085;28;20025;-80
2022/05/29 00:43:28;;;;;;;0.85;0.60;;;11.60;62.40;;;;;;5047464;28;20047;-80
2022/05/29 00:45:57;;;;;;;3.43;0.80;;;11.60;61.00;;;;;;5038764;28;20225;-80
2022/05/29 00:48:24;;;;;;;2.25;0.80;;;11.50;61.30;;;;;;5035051;28;20512;-80
2022/05/29 00:50:53;;;;;;;1.38;0.80;;;11.50;61.20;;;;;;5029137;28;20237;-80
2022/05/29 00:53:20;;;;;;;1.63;0.88;;;11.40;61.40;;;;;;5009246;28;20022;-80
2022/05/29 00:55:52;;;;;;;1.77;0.70;;;11.30;61.50;;;;;;5027200;28;20112;-80
2022/05/29 00:58:20;;;;;;;1.83;1.03;;;11.30;61.70;;;;;;5026169;28;20171;-80
2022/05/29 01:00:47;;;;;;;1.42;0.73;;;11.30;61.70;;;;;;5041758;28;20040;-80
2022/05/29 01:03:13;;;;;;;1.45;0.60;;;11.20;61.60;;;;;;5028930;28;20040;-79
2022/05/29 01:05:39;;;;;;;1.15;0.70;;;11.20;61.70;;;;;;5028907;28;20507;-79
2022/05/29 01:08:05;;;;;;;1.90;0.50;;;11.10;61.80;;;;;;5031008;28;20059;-79
2022/05/29 01:11:04;;;;;;;2.28;0.63;;;11.10;61.80;;;;;;5016363;28;20124;-79
2022/05/29 01:13:55;;;;;;;2.27;0.80;;;11.10;63.50;;;;;;5025156;28;20040;-79
2022/05/29 01:16:41;;;;;;;0.98;0.50;;;11.00;62.40;;;;;;5018292;28;20040;-79
2022/05/29 01:19:22;;;;;;;1.05;0.60;;;11.00;63.40;;;;;;5048645;28;20063;-79
2022/05/29 01:22:00;;;;;;;1.30;0.70;;;10.90;62.70;;;;;;5018003;28;20695;-79
2022/05/29 01:24:47;;;;;;;0.90;0.68;;;10.90;62.60;;;;;;5011231;28;20032;-79
2022/05/29 01:27:42;;;;;;;0.83;0.60;;;10.90;62.70;;;;;;5035327;28;20064;-80
2022/05/29 01:30:20;;;;;;;2.20;0.75;;;10.90;64.40;;;;;;5055018;28;20066;-80
2022/05/29 01:32:58;;;;;;;1.13;0.63;;;10.80;63.80;;;;;;5024807;28;20537;-79
2022/05/29 01:35:34;;;;;;;1.77;0.60;;;10.80;63.60;;;;;;5039667;28;20032;-79
2022/05/29 01:38:10;;;;;;;1.83;0.70;;;10.80;63.80;;;;;;5033624;28;20552;-79
2022/05/29 01:40:45;;;;;;;1.13;0.80;;;10.70;63.60;;;;;;5013145;28;20045;-79
2022/05/29 01:43:25;;;;;;;1.70;0.70;;;10.80;64.10;;;;;;5023776;28;20068;-79
2022/05/29 01:46:18;;;;;;;1.67;0.70;;;10.70;63.90;;;;;;5035171;28;20155;-79
2022/05/29 01:48:56;;;;;;;0.60;0.52;;;10.70;63.20;;;;;;5028966;28;20309;-79
2022/05/29 01:51:40;;;;;;;1.40;0.70;;;10.70;63.50;;;;;;5034645;28;20037;-79
2022/05/29 01:54:19;;;;;;;1.80;0.60;;;10.70;64.70;;;;;;5048858;28;20437;-79
2022/05/29 01:56:54;;;;;;;1.13;0.70;;;10.70;64.70;;;;;;5012329;28;20109;-79
2022/05/29 01:59:46;;;;;;;1.35;0.60;;;10.70;64.50;;;;;;5036122;28;20554;-79
2022/05/29 02:02:17;;;;;;;1.23;0.70;;;10.70;65.70;;;;;;5036590;28;20041;-79
2022/05/29 02:04:47;;;;;;;2.78;0.70;;;10.80;64.50;;;;;;5026693;28;20149;-79
2022/05/29 02:10:22;;;;;;;1.42;0.70;;;10.80;64.80;;;;;;5019872;28;20033;-79
2022/05/29 02:12:57;;;;;;;0.68;0.60;;;10.90;66.20;;;;;;5014265;28;20422;-79
2022/05/29 02:15:33;;;;;;;0.90;0.70;;;10.90;65.60;;;;;;5037195;28;20036;-79
2022/05/29 02:18:02;;;;;;;2.60;0.85;;;10.90;65.50;;;;;;5037139;28;20148;-79
2022/05/29 02:20:34;;;;;;;1.43;0.70;;;11.00;65.40;;;;;;5025669;28;20114;-80
2022/05/29 02:23:11;;;;;;;1.23;0.63;;;11.10;65.80;;;;;;5027210;28;20045;-79
2022/05/29 02:25:39;;;;;;;0.88;0.70;;;11.10;66.00;;;;;;5027304;28;20224;-79
2022/05/29 02:28:10;;;;;;;1.95;0.60;;;11.20;65.80;;;;;;5032517;28;20119;-79
2022/05/29 02:30:57;;;;;;;1.10;0.70;;;11.20;66.00;;;;;;5023397;28;20493;-79
2022/05/29 02:33:28;;;;;;;1.50;0.80;;;11.30;67.00;;;;;;5035059;28;20104;-80
2022/05/29 02:36:23;;;;;;;0.88;0.70;;;11.40;66.30;;;;;;5039200;28;20579;-80
2022/05/29 02:39:04;;;;;;;1.40;0.70;;;11.40;66.00;;;;;;5021177;28;20068;-79
2022/05/29 02:42:01;;;;;;;1.27;0.75;;;11.40;66.40;;;;;;5014203;28;20028;-80
2022/05/29 02:44:37;;;;;;;0.88;0.70;;;11.50;66.70;;;;;;5026821;28;20045;-82
2022/05/29 02:47:21;;;;;;;1.50;0.67;;;11.50;66.70;;;;;;5035705;28;20036;-82
2022/05/29 02:50:09;;;;;;;1.25;0.70;;;11.50;65.80;;;;;;5029612;28;20051;-81
2022/05/29 02:52:35;;;;;;;2.05;0.70;;;11.40;66.50;;;;;;5032234;28;20103;-81
2022/05/29 02:55:00;;;;;;;1.53;0.80;;;11.40;65.60;;;;;;5027171;28;20040;-81
2022/05/29 02:57:26;;;;;;;1.98;0.80;;;11.40;65.60;;;;;;5025985;28;20155;-81
2022/05/29 02:59:57;;;;;;;1.40;0.70;;;11.30;65.60;;;;;;5028393;28;20267;-81
2022/05/29 03:02:35;;;;;;;1.05;0.65;;;11.30;66.00;;;;;;5021577;28;20485;-81
2022/05/29 03:05:06;;;;;;;1.52;0.70;;;11.30;66.00;;;;;;5030360;28;20038;-81
2022/05/29 03:08:06;;;;;;;0.50;0.50;;;11.20;66.00;;;;;;5035583;28;20428;-79
2022/05/29 03:10:41;;;;;;;1.15;0.63;;;11.10;67.60;;;;;;5029713;28;20041;-79
2022/05/29 03:13:18;;;;;;;1.67;0.70;;;11.10;66.00;;;;;;5021799;28;20051;-79
2022/05/29 03:16:18;;;;;;;0.98;0.65;;;11.10;66.30;;;;;;5036829;28;20416;-79
2022/05/29 03:19:16;;;;;;;1.42;0.70;;;11.10;68.30;;;;;;5021256;28;22996;-79
2022/05/29 03:22:12;;;;;;;1.30;0.60;;;11.10;67.70;;;;;;5034957;28;20039;-79
2022/05/29 03:25:02;;;;;;;1.67;0.80;;;11.00;67.80;;;;;;5031830;28;20041;-78
2022/05/29 03:27:47;;;;;;;1.27;0.63;;;11.00;67.50;;;;;;5028839;28;20085;-79
2022/05/29 03:30:28;;;;;;;1.20;0.50;;;11.00;67.20;;;;;;5020764;28;20043;-79
2022/05/29 03:32:57;;;;;;;1.25;0.60;;;10.90;67.00;;;;;;5035217;28;20122;-79
2022/05/29 03:35:23;;;;;;;0.75;0.60;;;10.90;66.20;;;;;;5032642;28;20025;-79
2022/05/29 03:37:48;;;;;;;1.47;0.70;;;10.80;66.00;;;;;;5032034;28;20234;-79
2022/05/29 03:40:14;;;;;;;1.98;0.70;;;10.80;66.20;;;;;;5033981;28;20083;-79
2022/05/29 03:42:40;;;;;;;1.33;0.70;;;10.70;66.20;;;;;;5024788;28;20255;-81
2022/05/29 03:45:08;;;;;;;1.02;0.70;;;10.70;66.30;;;;;;5020259;28;20029;-81
2022/05/29 03:47:34;;;;;;;0.93;0.75;;;10.60;66.30;;;;;;5030611;28;20128;-81
2022/05/29 03:50:00;;;;;;;1.67;0.60;;;10.60;66.30;;;;;;5030159;28;20436;-81
2022/05/29 03:52:26;;;;;;;0.80;0.60;;;10.60;66.40;;;;;;5034516;28;20037;-81
2022/05/29 03:54:54;;;;;;;1.20;0.70;;;10.50;66.40;;;;;;5038077;28;20249;-81
2022/05/29 03:57:20;;;;;;;0.98;0.63;;;10.50;66.80;;;;;;5026344;28;20500;-81
2022/05/29 03:59:45;;;;;;;0.65;0.65;;;10.40;66.50;;;;;;5011311;28;20189;-81
2022/05/29 04:02:11;;;;;;;0.57;0.53;;;10.40;66.50;;;;;;5036818;28;20071;-80
2022/05/29 04:04:37;;;;;;;0.70;0.63;;;10.40;66.70;;;;;;5033722;28;20055;-80
2022/05/29 04:07:03;;;;;;;1.57;0.70;;;10.40;66.80;;;;;;5035774;28;20705;-79
2022/05/29 04:12:13;;;;;;;1.27;1.00;;;10.30;66.80;;;;;;5034046;28;20505;-79
2022/05/29 04:14:42;;;;;;;2.33;0.73;;;10.30;66.90;;;;;;5019819;28;20033;-79
2022/05/29 04:17:10;;;;;;;1.90;0.88;;;10.20;67.00;;;;;;5040122;28;20561;-79
2022/05/29 04:19:35;;;;;;;0.95;0.80;;;10.20;67.00;;;;;;5022752;28;20025;-79
2022/05/29 04:22:06;;;;;;;1.40;0.80;;;10.20;67.20;;;;;;5036479;28;20663;-79
2022/05/29 04:24:32;;;;;;;0.88;0.73;;;10.20;67.60;;;;;;5026588;28;20044;-79
2022/05/29 04:26:58;;;;;;;0.73;0.55;;;10.20;67.30;;;;;;5033559;28;20033;-79
2022/05/29 04:29:23;;;;;;;0.70;0.63;;;10.10;67.40;;;;;;5030523;28;20030;-79
2022/05/29 04:34:35;;;;;;;1.70;0.82;;;10.20;67.70;;;;;;5025945;28;20033;-79
2022/05/29 04:37:01;;;;;;;1.58;0.88;;;10.10;67.60;;;;;;5042242;28;20112;-80
2022/05/29 04:39:26;;;;;;;2.10;0.90;;;10.10;67.70;;;;;;5024981;28;20108;-79
2022/05/29 04:41:52;;;;;;;1.75;0.80;;;10.10;67.90;;;;;;5029141;28;20604;-79
2022/05/29 04:44:18;;;;;;;0.90;0.70;;;10.10;68.00;;;;;;5044657;28;20040;-79
2022/05/29 04:46:43;;;;;;;1.17;0.70;;;10.10;68.10;;;;;;5015477;28;20401;-79
2022/05/29 04:49:09;;;;;;;1.00;0.70;;;10.20;68.20;;;;;;5029885;28;20069;-79
2022/05/29 04:51:35;;;;;;;1.30;0.80;;;10.20;68.30;;;;;;5026358;28;20033;-79
2022/05/29 04:54:00;;;;;;;2.07;1.00;;;10.20;68.50;;;;;;5038392;28;20667;-79
2022/05/29 04:56:26;;;;;;;0.85;0.63;;;10.30;68.70;;;;;;5037151;28;20040;-79
2022/05/29 04:58:51;;;;;;;0.77;0.77;;;10.30;68.70;;;;;;5031610;28;20620;-79
2022/05/29 05:01:17;;;;;;;1.23;0.70;;;10.30;69.60;;;;;;4997786;28;20041;-79
2022/05/29 05:03:43;;;;;;;2.70;0.90;;;10.40;69.10;;;;;;5030280;28;20044;-79
2022/05/29 05:06:09;;;;;;;1.77;1.07;;;10.40;69.20;;;;;;5020363;28;20325;-79
2022/05/29 05:08:35;;;;;;;2.42;0.70;;;10.50;69.50;;;;;;5037877;28;20025;-81
2022/05/29 05:11:00;;;;;;;0.95;0.80;;;10.50;69.60;;;;;;5021528;28;20120;-81
2022/05/29 05:13:26;;;;;;;0.90;0.77;;;10.60;69.70;;;;;;5027041;28;20033;-81
2022/05/29 05:16:02;;;;;;;1.02;0.70;;;10.60;69.80;;;;;;5037896;28;20145;-81
2022/05/29 05:18:29;;;;;;;1.85;0.73;;;10.70;70.60;;;;;;5006493;28;20079;-81
2022/05/29 05:20:55;;;;;;;1.23;0.67;;;10.80;70.10;;;;;;5027749;28;20037;-81
2022/05/29 05:23:21;;;;;;;1.58;0.80;;;10.90;70.40;;;;;;5040130;28;20037;-81
2022/05/29 05:25:47;;;;;;;2.90;0.88;;;10.90;70.40;;;;;;5013711;28;20098;-80
2022/05/29 05:28:13;;;;;;;1.10;0.57;;;11.00;70.70;;;;;;5039760;28;20034;-80
2022/05/29 05:30:38;;;;;;;0.75;0.60;;;11.20;70.80;;;;;;5012371;28;20517;-80
2022/05/29 05:33:04;;;;;;;2.23;0.90;;;11.20;70.90;;;;;;5007480;28;20397;-80
2022/05/29 05:35:30;;;;;;;1.15;0.70;;;11.30;70.90;;;;;;5021204;28;20025;-80
2022/05/29 05:37:56;;;;;;;1.57;0.70;;;11.40;70.80;;;;;;5032889;28;20614;-80
2022/05/29 05:40:22;;;;;;;0.80;0.70;;;11.50;70.70;;;;;;5027770;28;20041;-80
2022/05/29 05:42:48;;;;;;;1.33;0.70;;;11.60;70.60;;;;;;5032462;28;20029;-80
2022/05/29 05:45:14;;;;;;;2.08;0.70;;;11.60;70.40;;;;;;5013584;28;20041;-80
2022/05/29 05:47:40;;;;;;;1.10;0.60;;;11.70;70.40;;;;;;5024667;28;20033;-80
2022/05/29 05:50:09;;;;;;;1.17;0.70;;;11.80;70.60;;;;;;4995040;28;21485;-80
2022/05/29 05:52:36;;;;;;;0.90;0.70;;;11.80;70.90;;;;;;5028371;28;20457;-80
2022/05/29 05:55:06;;;;;;;1.40;0.70;;;11.90;71.00;;;;;;5032472;28;20237;-80
2022/05/29 05:57:32;;;;;;;0.87;0.80;;;12.00;71.60;;;;;;5029773;28;20029;-80
2022/05/29 05:59:57;;;;;;;1.67;0.90;;;12.20;71.50;;;;;;5008956;28;20273;-79
2022/05/29 06:02:23;;;;;;;1.57;0.90;;;12.20;71.40;;;;;;5019844;28;20875;-80
2022/05/29 06:04:49;;;;;;;0.90;0.70;;;12.40;71.40;;;;;;5010388;28;20043;-80
2022/05/29 06:07:15;;;;;;;1.88;0.80;;;12.50;71.50;;;;;;5015192;28;20059;-80
2022/05/29 06:09:41;;;;;;;1.63;0.70;;;12.60;72.20;;;;;;5034376;28;20040;-79
2022/05/29 06:12:07;;;;;;;1.55;0.70;;;12.80;71.40;;;;;;5012390;28;20801;-79
2022/05/29 06:14:34;;;;;;;2.03;0.90;;;12.90;71.40;;;;;;5035268;28;20567;-80
2022/05/29 06:17:00;;;;;;;0.93;0.60;;;13.00;71.50;;;;;;5019320;28;20038;-80
2022/05/29 06:19:26;;;;;;;1.10;0.60;;;13.20;71.60;;;;;;5021759;28;20394;-80
2022/05/29 06:21:51;;;;;;;1.17;0.60;;;13.40;71.40;;;;;;5011373;28;20044;-80
2022/05/29 06:24:17;;;;;;;1.23;0.63;;;13.40;71.00;;;;;;5032021;28;20365;-80
2022/05/29 06:26:43;;;;;;;2.80;0.70;;;13.60;70.80;;;;;;5043034;28;20032;-80
2022/05/29 06:29:08;;;;;;;0.73;0.60;;;13.70;70.60;;;;;;5028258;28;20174;-81
2022/05/29 06:31:34;;;;;;;0.60;0.55;;;13.70;70.60;;;;;;5026685;28;20045;-81
2022/05/29 06:34:00;;;;;;;1.10;0.70;;;13.80;70.60;;;;;;5009890;28;20108;-80
2022/05/29 06:36:26;;;;;;;1.88;0.80;;;13.90;70.50;;;;;;5013745;28;20068;-80
2022/05/29 06:38:54;;;;;;;1.30;0.63;;;14.00;70.20;;;;;;5013769;28;20387;-80
2022/05/29 06:41:22;;;;;;;0.93;0.60;;;14.00;70.00;;;;;;5031502;28;20026;-79
2022/05/29 06:43:50;;;;;;;1.70;0.70;;;14.10;70.10;;;;;;5029476;28;20488;-80
2022/05/29 06:46:16;;;;;;;1.90;0.80;;;14.20;70.40;;;;;;5021341;28;20528;-80
2022/05/29 06:48:42;;;;;;;1.67;1.02;;;14.30;70.50;;;;;;5027813;28;20132;-80
2022/05/29 06:51:11;;;;;;;1.40;0.80;;;14.30;70.70;;;;;;4996940;28;21712;-80
2022/05/29 06:53:37;;;;;;;2.33;0.75;;;14.50;71.00;;;;;;5014738;28;20025;-80
2022/05/29 06:56:04;;;;;;;1.77;0.75;;;14.60;71.10;;;;;;5029303;28;20493;-80
2022/05/29 06:58:29;;;;;;;1.13;0.70;;;14.70;71.00;;;;;;5038914;28;20060;-80
2022/05/29 07:09:09;;;;;;;2.38;0.60;;;15.30;70.10;;;;;;5011355;28;20041;-80
2022/05/29 07:11:39;;;;;;;2.20;0.77;;;15.40;69.70;;;;;;5030214;28;20029;-80
2022/05/29 07:14:06;;;;;;;1.40;0.60;;;15.50;69.50;;;;;;5027269;28;20190;-81
2022/05/29 07:16:32;;;;;;;1.25;0.63;;;15.60;69.60;;;;;;5035176;28;20024;-80
2022/05/29 07:18:59;;;;;;;0.90;0.60;;;15.70;69.50;;;;;;5024211;28;20174;-81
2022/05/29 07:21:25;;;;;;;1.67;0.70;;;15.80;69.50;;;;;;5003052;28;20033;-81
2022/05/29 07:23:51;;;;;;;1.67;0.50;;;15.90;69.20;;;;;;5025025;28;20042;-81
2022/05/29 07:26:17;;;;;;;2.22;0.60;;;15.90;68.70;;;;;;5024298;28;20311;-80
2022/05/29 07:28:43;;;;;;;1.48;0.60;;;16.00;68.60;;;;;;5030487;28;20175;-80
2022/05/29 07:31:09;;;;;;;0.67;0.53;;;16.00;68.50;;;;;;5027695;28;20438;-79
2022/05/29 07:33:35;;;;;;;0.98;0.60;;;16.00;68.30;;;;;;5027105;28;20390;-80
2022/05/29 07:36:00;;;;;;;0.50;0.50;;;16.10;68.40;;;;;;5024811;28;20064;-81
2022/05/29 07:38:28;;;;;;;1.13;0.50;;;16.20;68.50;;;;;;5012835;28;20131;-81
2022/05/29 07:40:54;;;;;;;1.05;0.60;;;16.30;68.30;;;;;;5007454;28;20040;-80
2022/05/29 07:43:19;;;;;;;1.40;0.50;;;16.30;68.00;;;;;;5038120;28;20060;-80
2022/05/29 07:45:54;;;;;;;1.05;0.60;;;16.40;67.70;;;;;;5026537;28;20650;-81
2022/05/29 07:48:23;;;;;;;1.13;0.60;;;16.30;66.70;;;;;;5023447;28;20441;-81
2022/05/29 07:50:50;;;;;;;1.30;0.50;;;16.30;66.90;;;;;;4997540;28;22289;-80
2022/05/29 07:53:16;;;;;;;0.50;0.50;;;16.30;66.90;;;;;;5010796;28;20025;-81
2022/05/29 07:55:43;;;;;;;0.70;0.40;;;16.30;66.80;;;;;;5020841;28;20041;-80
2022/05/29 07:58:09;;;;;;;1.00;0.50;;;16.20;66.80;;;;;;5030858;28;20070;-80
2022/05/29 08:00:36;;;;;;;1.80;0.60;;;16.20;67.00;;;;;;5013658;28;20135;-81
2022/05/29 08:03:02;;;;;;;2.03;0.60;;;16.20;67.00;;;;;;5026356;28;20397;-80
2022/05/29 08:05:31;;;;;;;1.33;0.60;;;16.20;67.20;;;;;;5015907;28;20094;-80
2022/05/29 08:07:57;;;;;;;1.38;0.60;;;16.30;67.50;;;;;;4999948;28;20323;-80
2022/05/29 08:10:25;;;;;;;0.98;0.70;;;16.30;67.50;;;;;;5029796;28;20032;-80
2022/05/29 08:12:52;;;;;;;0.70;0.60;;;16.40;67.50;;;;;;5022704;28;20236;-80
2022/05/29 08:15:17;;;;;;;0.83;0.50;;;16.40;67.50;;;;;;5037050;28;20033;-80
2022/05/29 08:17:44;;;;;;;1.13;0.50;;;16.50;68.00;;;;;;5014707;28;20061;-80
2022/05/29 08:20:12;;;;;;;1.25;0.60;;;16.70;68.90;;;;;;5038905;28;20025;-81
2022/05/29 08:22:37;;;;;;;0.97;0.50;;;16.90;69.50;;;;;;5017954;28;20123;-80
2022/05/29 08:30:43;;;;;;;1.00;0.50;;;18.10;71.00;;;;;;5030507;28;20163;-80
2022/05/29 08:33:17;;;;;;;0.82;0.50;;;18.60;71.50;;;;;;5019910;28;20033;-81
2022/05/29 08:35:46;;;;;;;1.20;0.68;;;19.10;70.70;;;;;;5025232;28;20041;-80
2022/05/29 08:38:14;;;;;;;1.08;0.60;;;19.70;71.90;;;;;;5016909;28;20116;-81
2022/05/29 08:40:43;;;;;;;1.17;0.85;;;20.20;71.00;;;;;;4993162;28;20520;-81
2022/05/29 08:43:13;;;;;;;1.50;0.60;;;20.60;69.00;;;;;;5032610;28;20040;-81
2022/05/29 08:45:40;;;;;;;1.15;0.60;;;20.90;66.90;;;;;;5011544;28;20539;-81
2022/05/29 08:48:06;;;;;;;0.88;0.70;;;21.20;67.30;;;;;;5031979;28;20480;-81
2022/05/29 08:50:47;;;;;;;0.60;0.60;;;21.50;68.10;;;;;;5024487;28;20041;-80
2022/05/29 08:53:30;;;;;;;1.27;0.60;;;22.00;67.60;;;;;;5034331;28;20451;-81
2022/05/29 08:56:01;;;;;;;1.40;0.50;;;22.50;65.60;;;;;;5006163;28;20072;-80
2022/05/29 08:58:54;;;;;;;1.30;0.77;;;22.90;64.60;;;;;;5026840;28;20424;-80
2022/05/29 09:01:45;;;;;;;1.25;0.65;;;23.20;60.20;;;;;;5036298;28;20087;-81
2022/05/29 09:04:25;;;;;;;1.08;0.60;;;23.20;58.90;;;;;;5019003;28;20048;-81
2022/05/29 09:06:55;;;;;;;1.25;0.70;;;23.10;58.30;;;;;;5027193;28;20025;-81
2022/05/29 09:09:53;;;;;;;0.70;0.60;;;22.80;57.60;;;;;;5021744;28;20036;-81
2022/05/29 09:12:35;;;;;;;1.80;0.68;;;22.30;56.30;;;;;;5032241;28;20056;-80
2022/05/29 09:15:28;;;;;;;1.65;0.70;;;21.90;56.70;;;;;;5018752;28;20386;-80
2022/05/29 09:17:59;;;;;;;1.38;0.60;;;21.30;56.00;;;;;;5031937;28;20246;-80
2022/05/29 09:20:41;;;;;;;1.88;0.80;;;20.80;56.80;;;;;;5022760;28;20032;-81
2022/05/29 09:23:09;;;;;;;0.90;0.70;;;20.30;57.00;;;;;;5037524;28;20527;-81
2022/05/29 09:25:37;;;;;;;1.42;0.70;;;19.80;57.60;;;;;;5008169;28;20132;-81
2022/05/29 09:28:18;;;;;;;1.02;0.80;;;19.40;58.30;;;;;;5027094;28;20227;-81
2022/05/29 09:30:44;;;;;;;1.30;0.75;;;19.00;59.50;;;;;;5008335;28;20332;-82
2022/05/29 09:33:26;;;;;;;1.40;0.73;;;18.70;59.80;;;;;;5035121;28;20025;-80
2022/05/29 09:36:24;;;;;;;1.37;0.80;;;18.50;60.90;;;;;;5026969;28;20636;-81
2022/05/29 09:39:14;;;;;;;1.25;0.77;;;18.30;61.00;;;;;;5025477;28;20612;-81
2022/05/29 09:41:45;;;;;;;1.00;0.65;;;18.10;61.60;;;;;;5008464;28;20029;-80
2022/05/29 09:44:15;;;;;;;0.77;0.63;;;18.00;61.90;;;;;;5045515;28;20382;-81
2022/05/29 09:46:43;;;;;;;0.73;0.70;;;17.90;62.10;;;;;;5013230;28;20425;-80
2022/05/29 09:49:40;;;;;;;0.93;0.70;;;17.80;62.50;;;;;;5037818;28;20068;-81
2022/05/29 09:52:27;;;;;;;0.43;0.43;;;17.80;63.20;;;;;;5053462;28;20029;-81
2022/05/29 09:54:54;;;;;;;2.45;0.73;;;17.80;63.30;;;;;;5031949;28;20273;-81
2022/05/29 09:57:25;;;;;;;0.93;0.57;;;17.80;63.20;;;;;;5032962;28;20342;-81
2022/05/29 09:59:57;;;;;;;0.88;0.70;;;17.80;63.10;;;;;;5027396;28;20577;-81
2022/05/29 10:02:27;;;;;;;0.70;0.70;;;17.80;63.10;;;;;;5023225;28;20041;-82
2022/05/29 10:04:57;;;;;;;0.80;0.60;;;17.80;63.20;;;;;;5041750;28;20513;-82
2022/05/29 10:07:36;;;;;;;1.25;0.50;;;17.80;63.20;;;;;;5016672;28;20324;-81
2022/05/29 10:10:08;;;;;;;0.73;0.60;;;17.80;63.40;;;;;;5021939;28;20040;-81
2022/05/29 10:12:44;;;;;;;0.60;0.60;;;17.80;63.60;;;;;;5004596;28;20044;-81
2022/05/29 10:15:19;;;;;;;0.80;0.60;;;17.80;63.60;;;;;;5025446;28;20105;-81
2022/05/29 10:17:44;;;;;;;0.80;0.60;;;17.80;63.80;;;;;;5014098;28;20062;-81
2022/05/29 10:20:32;;;;;;;0.88;0.60;;;17.90;64.10;;;;;;5022284;28;20029;-81
2022/05/29 10:23:01;;;;;;;0.70;0.70;;;17.90;64.50;;;;;;5030958;28;20128;-81
2022/05/29 10:25:31;;;;;;;0.60;0.60;;;18.10;66.40;;;;;;5025239;28;20253;-81
2022/05/29 10:28:01;;;;;;;0.70;0.70;;;18.40;69.40;;;;;;5021567;28;20040;-81
2022/05/29 10:30:33;;;;;;;1.05;0.68;;;18.90;70.90;;;;;;5036574;28;20268;-81
2022/05/29 10:33:07;;;;;;;0.80;0.77;;;19.60;72.10;;;;;;5010337;28;20508;-80
2022/05/29 10:35:38;;;;;;;1.05;0.80;;;20.30;72.20;;;;;;5033565;28;20052;-81
2022/05/29 10:38:25;;;;;;;2.07;0.83;;;21.00;72.60;;;;;;5026773;28;20551;-81
2022/05/29 10:40:54;;;;;;;0.90;0.70;;;21.90;70.50;;;;;;5023055;28;20052;-81
2022/05/29 10:43:47;;;;;;;1.40;0.90;;;22.60;71.60;;;;;;5023083;28;20511;-80
2022/05/29 10:46:18;;;;;;;1.30;0.80;;;23.40;67.30;;;;;;5025520;28;20053;-80
2022/05/29 10:48:56;;;;;;;1.20;0.80;;;24.00;69.30;;;;;;5017467;28;20177;-81
2022/05/29 10:51:46;;;;;;;1.17;0.80;;;24.60;64.30;;;;;;5038808;28;20033;-80
2022/05/29 10:54:30;;;;;;;0.55;0.55;;;25.20;63.50;;;;;;5043024;28;20029;-81
2022/05/29 10:57:06;;;;;;;1.52;0.88;;;25.80;62.40;;;;;;5040292;28;20122;-81
2022/05/29 10:59:40;;;;;;;0.70;0.70;;;26.20;61.70;;;;;;5017858;28;20731;-80
2022/05/29 11:05:24;;;;;;;2.30;0.70;;;26.70;53.20;;;;;;5031706;28;20037;-82
2022/05/29 11:08:24;;;;;;;0.77;0.50;;;26.40;54.50;;;;;;5030599;28;20176;-82
2022/05/29 11:10:53;;;;;;;0.77;0.60;;;25.80;51.50;;;;;;5025203;28;20464;-82
2022/05/29 11:14:06;;;;;;;0.50;0.50;;;25.20;51.90;;;;;;5030422;28;20367;-82
2022/05/29 11:16:50;;;;;;;0.63;0.50;;;24.30;50.40;;;;;;4991363;28;20041;-83
2022/05/29 11:19:31;;;;;;;1.10;0.53;;;23.50;52.00;;;;;;5025234;28;20034;-82
2022/05/29 11:22:08;;;;;;;0.50;0.40;;;22.90;53.40;;;;;;5036927;28;20394;-82
2022/05/29 11:24:56;;;;;;;0.40;0.40;;;22.20;53.90;;;;;;5022460;28;20279;-82
2022/05/29 11:27:40;;;;;;;0.60;0.60;;;21.70;54.70;;;;;;5031992;28;20403;-81
2022/05/29 11:30:11;;;;;;;1.00;0.80;;;21.30;55.40;;;;;;5034222;28;20333;-82
2022/05/29 11:32:54;;;;;;;0.70;0.60;;;21.00;56.20;;;;;;4995142;28;20485;-82
2022/05/29 11:35:40;;;;;;;1.05;0.60;;;20.60;56.90;;;;;;5032181;28;20524;-83
2022/05/29 11:38:39;;;;;;;0.70;0.70;;;20.40;57.60;;;;;;5033172;28;20044;-81
2022/05/29 11:41:10;;;;;;;0.50;0.50;;;20.30;58.20;;;;;;5033448;28;20060;-82
2022/05/29 11:43:47;;;;;;;1.55;0.70;;;20.30;58.80;;;;;;5018106;28;20033;-81
2022/05/29 11:52:37;;;;;;;0.90;0.70;;;20.70;61.60;;;;;;5038422;28;20069;-81
2022/05/29 11:55:07;;;;;;;1.25;0.70;;;21.00;61.90;;;;;;5026445;28;20025;-81
2022/05/29 11:57:56;;;;;;;1.15;0.77;;;21.30;61.90;;;;;;5029475;28;20505;-82
2022/05/29 12:00:39;;;;;;;1.43;0.90;;;21.50;60.80;;;;;;5023403;28;20648;-81
2022/05/29 12:03:33;;;;;;;1.02;0.70;;;21.70;60.60;;;;;;5009514;28;20481;-81
2022/05/29 12:06:40;;;;;;;1.13;0.70;;;21.80;60.00;;;;;;5026052;28;20205;-82
2022/05/29 12:09:09;;;;;;;1.17;0.70;;;21.90;59.50;;;;;;5027740;28;20076;-81
2022/05/29 12:11:39;;;;;;;0.85;0.80;;;22.00;60.50;;;;;;5031083;28;20037;-81
2022/05/29 12:14:11;;;;;;;0.83;0.63;;;22.20;59.80;;;;;;5036079;28;20424;-81
2022/05/29 12:16:40;;;;;;;2.45;0.65;;;22.20;59.00;;;;;;5014669;28;20052;-81
2022/05/29 12:19:16;;;;;;;1.23;0.80;;;22.30;59.40;;;;;;5005788;28;20252;-81
2022/05/29 12:22:06;;;;;;;1.30;0.70;;;22.40;58.50;;;;;;5004548;28;20048;-81
2022/05/29 12:24:36;;;;;;;1.17;0.80;;;22.50;57.10;;;;;;5022258;28;20036;-82
2022/05/29 12:27:22;;;;;;;1.10;0.80;;;22.50;57.80;;;;;;5048781;28;20039;-82
2022/05/29 12:30:14;;;;;;;1.98;0.90;;;22.40;57.00;;;;;;5029191;28;20123;-81
2022/05/29 12:32:40;;;;;;;1.15;0.80;;;22.40;57.20;;;;;;5003854;28;20036;-80
2022/05/29 12:35:19;;;;;;;0.87;0.70;;;22.40;57.80;;;;;;5022726;28;20721;-81
2022/05/29 12:38:08;;;;;;;0.88;0.68;;;22.40;56.80;;;;;;5016879;28;20170;-82
2022/05/29 12:40:34;;;;;;;1.85;0.85;;;22.40;57.20;;;;;;5024939;28;20037;-81
2022/05/29 12:43:24;;;;;;;1.83;0.80;;;22.40;58.10;;;;;;5034765;28;20516;-82
2022/05/29 12:46:34;;;;;;;1.48;0.82;;;22.50;57.40;;;;;;5032758;28;20041;-82
2022/05/29 12:49:12;;;;;;;1.20;0.80;;;22.60;57.90;;;;;;5020969;28;20073;-81
2022/05/29 12:52:17;;;;;;;0.82;0.82;;;22.70;57.80;;;;;;4998910;28;20033;-79
2022/05/29 12:55:16;;;;;;;2.50;0.82;;;22.80;57.70;;;;;;5015661;28;20041;-81
2022/05/29 12:58:19;;;;;;;0.90;0.77;;;22.90;57.10;;;;;;5016693;28;20182;-80
2022/05/29 13:01:01;;;;;;;0.90;0.80;;;22.80;56.60;;;;;;5026781;28;20049;-80
2022/05/29 13:03:38;;;;;;;1.70;0.70;;;22.70;56.30;;;;;;5024687;28;20090;-81
2022/05/29 13:06:26;;;;;;;0.77;0.60;;;22.60;55.80;;;;;;5024641;28;20047;-82
2022/05/29 13:09:34;;;;;;;0.75;0.50;;;22.50;55.60;;;;;;5021528;28;20215;-80
2022/05/29 13:12:22;;;;;;;1.13;0.60;;;22.40;55.40;;;;;;5043858;28;20587;-80
2022/05/29 13:14:53;;;;;;;0.50;0.50;;;22.40;56.30;;;;;;5026269;28;20041;-81
2022/05/29 13:17:26;;;;;;;0.45;0.45;;;22.40;57.00;;;;;;5034047;28;20045;-81
2022/05/29 13:19:58;;;;;;;1.00;0.60;;;22.40;56.70;;;;;;5027516;28;20138;-81
2022/05/29 13:23:03;;;;;;;1.80;0.70;;;22.50;57.00;;;;;;5017022;28;20025;-80
2022/05/29 13:25:56;;;;;;;0.60;0.60;;;22.60;56.40;;;;;;5022462;28;20140;-81
2022/05/29 13:28:46;;;;;;;0.98;0.60;;;22.70;55.80;;;;;;5030616;28;20065;-80
2022/05/29 13:31:14;;;;;;;0.80;0.50;;;22.70;56.30;;;;;;5023131;28;20382;-81
2022/05/29 13:33:46;;;;;;;1.02;0.60;;;22.80;56.80;;;;;;5023899;28;20116;-81
2022/05/29 13:36:48;;;;;;;0.98;0.60;;;22.90;56.70;;;;;;5036947;28;20037;-81
2022/05/29 13:39:35;;;;;;;0.50;0.43;;;23.10;55.70;;;;;;5009363;28;20037;-81
2022/05/29 13:42:10;;;;;;;0.50;0.50;;;23.10;55.50;;;;;;5027079;28;20071;-80
2022/05/29 13:44:42;;;;;;;0.82;0.60;;;23.20;56.60;;;;;;5033446;28;20437;-81
2022/05/29 13:47:24;;;;;;;1.35;0.68;;;23.30;55.80;;;;;;5034945;28;20036;-80
2022/05/29 13:50:04;;;;;;;1.10;0.70;;;23.30;55.50;;;;;;5020156;28;20055;-80
2022/05/29 13:52:54;;;;;;;0.73;0.50;;;23.50;56.30;;;;;;5025761;28;20513;-81
2022/05/29 13:55:24;;;;;;;1.60;0.70;;;23.70;56.40;;;;;;5031359;28;20350;-80